createdAt,value
2018-10-05T00:01:26.727Z,11.76
2018-10-05T00:04:30.405Z,11.60
2018-10-05T00:07:36.814Z,11.66
2018-10-05T00:10:40.402Z,11.69
2018-10-05T00:13:43.950Z,11.91
2018-10-05T00:16:47.514Z,11.92
2018-10-05T00:19:51.454Z,11.91
2018-10-05T00:22:55.043Z,11.89
2018-10-05T00:25:58.645Z,11.79
2018-10-05T00:29:02.434Z,11.70
2018-10-05T00:32:06.131Z,11.59
2018-10-05T00:35:09.659Z,11.44
2018-10-05T00:38:13.180Z,11.26
2018-10-05T00:41:16.721Z,11.14
2018-10-05T00:44:20.304Z,11.01
2018-10-05T00:47:23.832Z,11.13
2018-10-05T00:50:27.434Z,10.99
2018-10-05T00:53:31.080Z,11.04
2018-10-05T00:56:34.641Z,11.28
2018-10-05T00:59:38.226Z,11.12
2018-10-05T01:02:41.766Z,11.00
2018-10-05T01:05:45.487Z,10.96
2018-10-05T01:08:49.121Z,11.09
2018-10-05T01:11:52.662Z,11.01
2018-10-05T01:14:56.262Z,10.96
2018-10-05T01:17:59.785Z,10.68
2018-10-05T01:21:03.505Z,10.80
2018-10-05T01:24:07.155Z,10.73
2018-10-05T01:27:10.867Z,10.63
2018-10-05T01:30:14.516Z,10.58
2018-10-05T01:33:18.047Z,10.41
2018-10-05T01:36:21.522Z,10.43
2018-10-05T01:39:25.146Z,10.29
2018-10-05T01:42:29.000Z,10.27
2018-10-05T01:45:32.550Z,10.24
2018-10-05T01:48:36.193Z,10.16
2018-10-05T01:51:39.717Z,10.15
2018-10-05T01:54:43.391Z,10.12
2018-10-05T01:57:47.036Z,10.08
2018-10-05T02:00:50.518Z,10.10
2018-10-05T02:03:54.131Z,9.98
2018-10-05T02:06:57.750Z,9.96
2018-10-05T02:10:01.277Z,9.89
2018-10-05T02:13:04.823Z,9.79
2018-10-05T02:16:08.737Z,9.96
2018-10-05T02:19:12.372Z,9.88
2018-10-05T02:22:16.036Z,9.91
2018-10-05T02:25:19.618Z,10.04
2018-10-05T02:28:23.229Z,9.98
2018-10-05T02:31:26.811Z,10.16
2018-10-05T02:34:30.398Z,10.29
2018-10-05T02:37:33.931Z,10.06
2018-10-05T02:40:37.558Z,9.98
2018-10-05T02:43:41.123Z,9.94
2018-10-05T02:46:44.642Z,9.95
2018-10-05T02:49:48.268Z,10.05
2018-10-05T02:52:51.955Z,10.03
2018-10-05T02:55:55.427Z,10.05
2018-10-05T02:58:58.973Z,10.07
2018-10-05T03:02:13.517Z,9.94
2018-10-05T03:05:17.131Z,10.06
2018-10-05T03:08:20.617Z,10.07
2018-10-05T03:11:24.188Z,9.95
2018-10-05T03:14:27.823Z,9.92
2018-10-05T03:17:31.320Z,9.83
2018-10-05T03:20:34.833Z,9.91
2018-10-05T03:23:38.628Z,9.96
2018-10-05T03:26:42.271Z,9.86
2018-10-05T03:29:45.973Z,9.84
2018-10-05T03:32:49.546Z,9.78
2018-10-05T03:35:53.142Z,9.68
2018-10-05T03:38:56.685Z,9.59
2018-10-05T03:42:00.306Z,9.61
2018-10-05T03:45:03.875Z,9.67
2018-10-05T03:48:07.458Z,9.82
2018-10-05T03:51:11.058Z,9.71
2018-10-05T03:54:14.592Z,9.67
2018-10-05T03:57:18.184Z,9.67
2018-10-05T04:00:21.802Z,9.63
2018-10-05T04:03:25.335Z,9.51
2018-10-05T04:06:28.944Z,9.65
2018-10-05T04:09:32.471Z,9.67
2018-10-05T04:12:36.197Z,9.56
2018-10-05T04:15:39.757Z,9.63
2018-10-05T04:18:43.298Z,9.54
2018-10-05T04:21:46.989Z,9.37
2018-10-05T04:24:50.529Z,9.33
2018-10-05T04:27:54.156Z,9.29
2018-10-05T04:30:57.725Z,9.20
2018-10-05T04:34:01.326Z,9.40
2018-10-05T04:37:05.087Z,9.34
2018-10-05T04:40:08.637Z,9.41
2018-10-05T04:43:12.292Z,9.22
2018-10-05T04:46:15.799Z,9.07
2018-10-05T04:49:19.448Z,9.03
2018-10-05T04:52:23.047Z,8.95
2018-10-05T04:55:26.613Z,8.93
2018-10-05T04:58:30.199Z,8.85
2018-10-05T05:01:33.793Z,8.67
2018-10-05T05:04:37.312Z,8.75
2018-10-05T05:07:40.793Z,8.66
2018-10-05T05:10:44.275Z,8.58
2018-10-05T05:13:47.973Z,8.60
2018-10-05T05:16:51.469Z,8.60
2018-10-05T05:19:55.185Z,8.65
2018-10-05T05:22:58.869Z,8.59
2018-10-05T05:26:02.428Z,8.56
2018-10-05T05:29:06.413Z,8.46
2018-10-05T05:32:09.987Z,8.50
2018-10-05T05:35:13.529Z,8.52
2018-10-05T05:38:17.055Z,8.70
2018-10-05T05:41:20.573Z,8.81
2018-10-05T05:44:24.153Z,8.66
2018-10-05T05:47:27.695Z,9.14
2018-10-05T05:50:31.300Z,9.25
2018-10-05T05:53:34.989Z,9.50
2018-10-05T05:56:38.598Z,9.54
2018-10-05T05:59:42.113Z,9.82
2018-10-05T06:02:45.648Z,9.98
2018-10-05T06:05:49.275Z,10.33
2018-10-05T06:08:52.807Z,10.53
2018-10-05T06:11:56.324Z,10.60
2018-10-05T06:14:59.921Z,10.73
2018-10-05T06:18:03.550Z,10.56
2018-10-05T06:21:07.287Z,10.72
2018-10-05T06:24:10.907Z,10.74
2018-10-05T06:27:14.534Z,10.70
2018-10-05T06:30:18.111Z,10.79
2018-10-05T06:33:21.844Z,10.83
2018-10-05T06:36:25.314Z,10.94
2018-10-05T06:39:28.802Z,11.02
2018-10-05T06:42:32.393Z,11.28
2018-10-05T06:45:35.931Z,11.18
2018-10-05T06:48:39.724Z,11.31
2018-10-05T06:51:43.529Z,11.74
2018-10-05T06:54:47.154Z,11.71
2018-10-05T06:57:50.615Z,11.81
2018-10-05T07:00:54.214Z,12.01
2018-10-05T07:03:57.811Z,12.07
2018-10-05T07:07:01.316Z,12.17
2018-10-05T07:10:05.162Z,12.37
2018-10-05T07:13:08.801Z,12.36
2018-10-05T07:16:12.425Z,12.42
2018-10-05T07:19:15.935Z,12.56
2018-10-05T07:22:19.543Z,12.77
2018-10-05T07:25:23.166Z,12.84
2018-10-05T07:28:26.908Z,13.00
2018-10-05T07:31:30.375Z,13.03
2018-10-05T07:34:34.012Z,13.04
2018-10-05T07:37:37.524Z,13.29
2018-10-05T07:40:41.034Z,13.16
2018-10-05T07:43:44.556Z,13.21
2018-10-05T07:46:48.157Z,13.09
2018-10-05T07:49:51.796Z,13.27
2018-10-05T07:52:55.359Z,13.43
2018-10-05T07:55:59.059Z,13.50
2018-10-05T07:59:02.726Z,13.47
2018-10-05T08:02:06.566Z,13.46
2018-10-05T08:05:10.105Z,13.55
2018-10-05T08:08:13.581Z,13.44
2018-10-05T08:11:17.507Z,13.30
2018-10-05T08:14:21.009Z,13.52
2018-10-05T08:17:24.546Z,13.79
2018-10-05T08:20:28.257Z,13.68
2018-10-05T08:23:32.023Z,13.76
2018-10-05T08:26:36.680Z,13.90
2018-10-05T08:29:40.195Z,13.75
2018-10-05T08:32:43.843Z,13.99
2018-10-05T08:35:47.401Z,13.88
2018-10-05T08:38:51.011Z,14.12
2018-10-05T08:41:54.710Z,14.13
2018-10-05T08:44:58.301Z,14.15
2018-10-05T08:48:01.811Z,14.44
2018-10-05T08:51:05.377Z,14.36
2018-10-05T08:54:09.468Z,14.33
2018-10-05T08:57:13.199Z,14.22
2018-10-05T09:00:16.903Z,14.41
2018-10-05T09:03:20.472Z,14.37
2018-10-05T09:06:24.017Z,14.43
2018-10-05T09:09:27.546Z,14.55
2018-10-05T09:12:31.135Z,14.66
2018-10-05T09:15:34.716Z,14.62
2018-10-05T09:18:38.586Z,14.51
2018-10-05T09:21:42.147Z,14.52
2018-10-05T09:24:45.665Z,14.78
2018-10-05T09:27:49.200Z,14.93
2018-10-05T09:30:52.918Z,14.73
2018-10-05T09:33:56.557Z,14.64
2018-10-05T09:37:00.191Z,14.70
2018-10-05T09:40:03.787Z,14.77
2018-10-05T09:43:07.431Z,14.69
2018-10-05T09:46:11.209Z,14.82
2018-10-05T09:49:14.831Z,15.16
2018-10-05T09:52:18.577Z,15.31
2018-10-05T09:55:22.272Z,15.18
2018-10-05T09:58:25.848Z,15.19
2018-10-05T10:01:34.656Z,15.34
2018-10-05T10:04:38.192Z,15.42
2018-10-05T10:07:41.838Z,15.68
2018-10-05T10:10:45.495Z,15.88
2018-10-05T10:13:49.129Z,15.72
2018-10-05T10:16:52.616Z,15.61
2018-10-05T10:19:56.247Z,15.67
2018-10-05T10:22:59.821Z,15.67
2018-10-05T10:26:03.482Z,15.86
2018-10-05T10:29:07.132Z,15.87
2018-10-05T10:32:10.519Z,15.86
2018-10-05T10:35:14.151Z,15.82
2018-10-05T10:38:17.786Z,16.12
2018-10-05T10:41:21.413Z,16.04
2018-10-05T10:44:24.978Z,16.13
2018-10-05T10:47:28.755Z,16.28
2018-10-05T10:50:32.302Z,16.26
2018-10-05T10:53:35.894Z,16.35
2018-10-05T10:56:39.469Z,16.22
2018-10-05T10:59:43.029Z,16.31
2018-10-05T11:02:46.552Z,16.15
2018-10-05T11:05:50.157Z,15.99
2018-10-05T11:08:53.679Z,16.40
2018-10-05T11:11:57.222Z,16.89
2018-10-05T11:15:00.789Z,16.71
2018-10-05T11:18:04.285Z,16.65
2018-10-05T11:21:08.008Z,16.33
2018-10-05T11:24:11.593Z,16.20
2018-10-05T11:27:15.205Z,16.56
2018-10-05T11:30:18.887Z,16.87
2018-10-05T11:33:22.388Z,16.48
2018-10-05T11:36:25.932Z,16.80
2018-10-05T11:39:29.534Z,17.28
2018-10-05T11:42:33.127Z,17.06
2018-10-05T11:45:36.837Z,16.60
2018-10-05T11:48:40.413Z,16.52
2018-10-05T11:51:44.085Z,16.71
2018-10-05T11:54:47.645Z,17.01
2018-10-05T11:57:51.328Z,17.47
2018-10-05T12:00:54.930Z,17.40
2018-10-05T12:03:58.498Z,17.43
2018-10-05T12:07:02.148Z,16.92
2018-10-05T12:10:06.014Z,16.90
2018-10-05T12:13:09.527Z,17.28
2018-10-05T12:16:13.133Z,17.48
2018-10-05T12:19:16.703Z,17.35
2018-10-05T12:22:20.510Z,17.48
2018-10-05T12:25:24.188Z,17.44
2018-10-05T12:28:27.739Z,17.44
2018-10-05T12:31:31.404Z,17.41
2018-10-05T12:34:35.010Z,17.47
2018-10-05T12:37:38.699Z,17.32
2018-10-05T12:40:42.374Z,17.70
2018-10-05T12:43:46.026Z,17.43
2018-10-05T12:46:49.558Z,17.40
2018-10-05T12:49:53.989Z,17.24
2018-10-05T12:52:57.815Z,17.14
2018-10-05T12:56:01.444Z,17.33
2018-10-05T12:59:05.068Z,17.67
2018-10-05T13:02:08.780Z,17.58
2018-10-05T13:05:12.348Z,17.95
2018-10-05T13:08:16.085Z,17.49
2018-10-05T13:11:19.665Z,17.45
2018-10-05T13:14:23.290Z,17.29
2018-10-05T13:17:27.099Z,17.45
2018-10-05T13:20:30.667Z,17.80
2018-10-05T13:23:34.267Z,17.93
2018-10-05T13:26:37.886Z,17.54
2018-10-05T13:29:41.525Z,17.65
2018-10-05T13:32:45.240Z,17.51
2018-10-05T13:35:48.800Z,17.60
2018-10-05T13:38:52.430Z,17.79
2018-10-05T13:41:56.165Z,18.07
2018-10-05T13:44:59.728Z,17.99
2018-10-05T13:48:03.299Z,18.20
2018-10-05T13:51:07.005Z,17.81
2018-10-05T13:54:10.600Z,18.02
2018-10-05T13:57:14.220Z,18.21
2018-10-05T14:00:17.827Z,18.13
2018-10-05T14:03:21.479Z,17.81
2018-10-05T14:06:25.168Z,17.62
2018-10-05T14:09:28.759Z,17.75
2018-10-05T14:12:32.330Z,18.05
2018-10-05T14:15:35.974Z,18.48
2018-10-05T14:18:39.563Z,18.13
2018-10-05T14:21:43.255Z,18.21
2018-10-05T14:24:46.884Z,18.32
2018-10-05T14:27:50.476Z,17.98
2018-10-05T14:30:54.034Z,18.05
2018-10-05T14:33:57.664Z,18.23
2018-10-05T14:37:01.224Z,17.98
2018-10-05T14:40:05.136Z,17.84
2018-10-05T14:43:08.676Z,17.89
2018-10-05T14:46:12.336Z,17.81
2018-10-05T14:49:16.116Z,18.13
2018-10-05T14:52:23.945Z,17.84
2018-10-05T14:55:27.636Z,18.10
2018-10-05T14:58:31.209Z,17.98
2018-10-05T15:01:34.916Z,17.72
2018-10-05T15:04:38.626Z,17.76
2018-10-05T15:07:42.204Z,17.96
2018-10-05T15:10:46.031Z,18.29
2018-10-05T15:13:49.701Z,17.94
2018-10-05T15:16:53.377Z,17.69
2018-10-05T15:19:56.994Z,17.58
2018-10-05T15:23:00.665Z,17.45
2018-10-05T15:26:04.269Z,17.18
2018-10-05T15:29:07.897Z,17.18
2018-10-05T15:32:11.514Z,17.13
2018-10-05T15:35:15.097Z,17.11
2018-10-05T15:38:18.699Z,17.37
2018-10-05T15:41:22.245Z,17.04
2018-10-05T15:44:25.865Z,17.15
2018-10-05T15:47:29.413Z,16.82
2018-10-05T15:50:33.041Z,16.70
2018-10-05T15:53:36.893Z,16.55
2018-10-05T15:56:40.454Z,16.33
2018-10-05T15:59:44.073Z,16.24
2018-10-05T16:02:47.640Z,16.13
2018-10-05T16:05:51.464Z,15.86
2018-10-05T16:08:55.020Z,15.63
2018-10-05T16:11:58.672Z,15.78
2018-10-05T16:15:02.324Z,15.70
2018-10-05T16:18:05.970Z,15.60
2018-10-05T16:21:09.571Z,15.39
2018-10-05T16:24:21.375Z,15.58
2018-10-05T16:27:24.985Z,15.49
2018-10-05T16:30:28.644Z,15.37
2018-10-05T16:33:32.292Z,15.25
2018-10-05T16:36:35.877Z,15.07
2018-10-05T16:39:39.613Z,15.06
2018-10-05T16:42:43.391Z,14.92
2018-10-05T16:45:47.023Z,15.07
2018-10-05T16:48:50.668Z,14.91
2018-10-05T16:51:54.383Z,14.69
2018-10-05T16:54:58.068Z,14.87
2018-10-05T16:58:01.763Z,15.24
2018-10-05T17:01:05.378Z,15.07
2018-10-05T17:04:08.946Z,15.23
2018-10-05T17:07:12.536Z,14.94
2018-10-05T17:10:16.123Z,14.94
2018-10-05T17:13:19.722Z,14.77
2018-10-05T17:16:23.307Z,14.85
2018-10-05T17:19:27.044Z,14.83
2018-10-05T17:22:30.681Z,14.66
2018-10-05T17:25:34.316Z,14.51
2018-10-05T17:28:38.034Z,14.51
2018-10-05T17:31:41.712Z,14.56
2018-10-05T17:34:45.349Z,14.36
2018-10-05T17:37:49.235Z,14.21
2018-10-05T17:40:53.029Z,14.19
2018-10-05T17:43:56.630Z,14.26
2018-10-05T17:47:00.285Z,14.19
2018-10-05T17:50:04.303Z,13.99
2018-10-05T17:53:08.032Z,14.09
2018-10-05T17:56:11.753Z,13.85
2018-10-05T17:59:15.269Z,13.63
2018-10-05T18:02:19.094Z,13.61
2018-10-05T18:05:22.830Z,13.92
2018-10-05T18:08:26.684Z,13.76
2018-10-05T18:11:30.282Z,13.83
2018-10-05T18:14:34.007Z,13.82
2018-10-05T18:17:38.144Z,13.70
2018-10-05T18:20:41.858Z,13.75
2018-10-05T18:23:45.455Z,13.63
2018-10-05T18:26:49.122Z,13.48
2018-10-05T18:29:52.734Z,13.76
2018-10-05T18:32:56.479Z,13.93
2018-10-05T18:36:00.192Z,14.34
2018-10-05T18:39:05.060Z,13.98
2018-10-05T18:42:08.708Z,14.08
2018-10-05T18:45:12.392Z,14.81
2018-10-05T18:48:16.060Z,15.32
2018-10-05T18:51:20.006Z,15.10
2018-10-05T18:54:23.686Z,14.72
2018-10-05T18:57:27.726Z,14.63
2018-10-05T19:00:31.405Z,14.38
2018-10-05T19:03:35.118Z,14.26
2018-10-05T19:06:39.041Z,14.00
2018-10-05T19:09:43.003Z,13.68
2018-10-05T19:12:46.663Z,13.66
2018-10-05T19:15:50.338Z,13.85
2018-10-05T19:18:54.133Z,13.98
2018-10-05T19:21:57.724Z,14.04
2018-10-05T19:25:01.680Z,13.91
2018-10-05T19:28:05.334Z,13.61
2018-10-05T19:31:09.099Z,13.50
2018-10-05T19:34:12.906Z,13.75
2018-10-05T19:37:16.504Z,13.58
2018-10-05T19:40:20.287Z,13.66
2018-10-05T19:43:23.970Z,13.89
2018-10-05T19:46:27.910Z,14.51
2018-10-05T19:49:31.780Z,14.52
2018-10-05T19:52:35.699Z,14.47
2018-10-05T19:55:39.452Z,14.37
2018-10-05T19:58:43.183Z,14.39
2018-10-05T20:01:47.033Z,14.33
2018-10-05T20:04:51.674Z,14.43
2018-10-05T20:07:55.382Z,14.41
2018-10-05T20:10:59.091Z,14.48
2018-10-05T20:14:02.710Z,14.25
2018-10-05T20:17:06.660Z,13.97
2018-10-05T20:20:10.383Z,13.86
2018-10-05T20:23:14.100Z,13.98
2018-10-05T20:26:17.682Z,14.15
2018-10-05T20:29:21.415Z,14.34
2018-10-05T20:32:25.171Z,14.41
2018-10-05T20:35:28.927Z,14.93
2018-10-05T20:38:32.649Z,14.63
2018-10-05T20:41:36.786Z,14.55
2018-10-05T20:44:40.624Z,14.42
2018-10-05T20:47:44.230Z,14.36
2018-10-05T20:50:48.083Z,14.40
2018-10-05T20:53:51.974Z,14.63
2018-10-05T20:56:55.670Z,14.69
2018-10-05T20:59:59.445Z,14.80
2018-10-05T21:03:03.489Z,14.55
2018-10-05T21:06:07.283Z,14.49
2018-10-05T21:09:11.397Z,14.05
2018-10-05T21:12:15.011Z,14.09
2018-10-05T21:15:18.844Z,14.41
2018-10-05T21:18:22.443Z,14.66
2018-10-05T21:21:26.043Z,14.73
2018-10-05T21:24:29.639Z,14.53
2018-10-05T21:27:33.410Z,14.68
2018-10-05T21:30:37.126Z,14.55
2018-10-05T21:33:42.172Z,14.66
2018-10-05T21:36:45.801Z,14.33
2018-10-05T21:39:49.355Z,14.25
2018-10-05T21:42:52.991Z,14.48
2018-10-05T21:45:56.758Z,14.34
2018-10-05T21:49:00.468Z,14.13
2018-10-05T21:52:04.383Z,14.23
2018-10-05T21:55:07.988Z,14.27
2018-10-05T21:58:11.627Z,14.13
2018-10-05T22:01:15.422Z,13.92
2018-10-05T22:04:19.231Z,13.84
2018-10-05T22:07:23.190Z,13.49
2018-10-05T22:10:26.720Z,13.30
2018-10-05T22:13:30.587Z,13.51
2018-10-05T22:16:34.353Z,13.69
2018-10-05T22:19:38.189Z,13.59
2018-10-05T22:22:41.667Z,13.99
2018-10-05T22:25:53.890Z,13.82
2018-10-05T22:28:57.682Z,13.54
2018-10-05T22:32:01.462Z,13.24
2018-10-05T22:35:05.350Z,13.35
2018-10-05T22:38:09.220Z,13.40
2018-10-05T22:41:12.812Z,13.51
2018-10-05T22:44:16.423Z,13.24
2018-10-05T22:47:20.012Z,13.04
2018-10-05T22:50:23.566Z,12.90
2018-10-05T22:53:27.321Z,12.72
2018-10-05T22:56:30.924Z,12.66
2018-10-05T22:59:34.580Z,12.72
2018-10-05T23:02:38.283Z,12.61
2018-10-05T23:05:41.857Z,12.52
2018-10-05T23:08:45.509Z,12.45
2018-10-05T23:11:49.281Z,12.33
2018-10-05T23:14:53.031Z,12.31
2018-10-05T23:17:56.692Z,12.42
2018-10-05T23:21:00.256Z,12.51
2018-10-05T23:24:04.010Z,12.61
2018-10-05T23:27:07.736Z,12.80
2018-10-05T23:30:11.312Z,12.85
2018-10-05T23:33:15.111Z,12.73
2018-10-05T23:36:18.706Z,12.71
2018-10-05T23:39:22.258Z,12.57
2018-10-05T23:42:25.825Z,12.81
2018-10-05T23:45:29.351Z,12.92
2018-10-05T23:48:32.917Z,12.60
2018-10-05T23:51:37.376Z,12.47
2018-10-05T23:54:40.950Z,12.58
2018-10-05T23:57:44.783Z,12.53
